Meath Environmental Platform

Observations for Trim Patrick St

Time AQI Temp °C Hum % Pres Pa CO μg/m³ H₂S μg/m³ NO μg/m³ NO₂ μg/m³ O₃ μg/m³ SO₂ μg/m³ PM1 μg/m³ PM2.5 μg/m³ PM10 μg/m³
Friday 31 July 2026
14:31 2 21.5 46 68,757 0 14.91 1.38 29.36 66.99 3.8 2 8.21 9.03
14:30 2 21.4 46 68,741 0 16.94 1.38 31.25 73 4.78 3.71 8.22 9.04
14:29 2 21.4 46 68,753 0 15.01 1.37 31.72 67.28 4.38 2.86 8.22 9.04
14:28 2 21.4 46 68,737 0 14.33 1.36 30.81 69.99 4.66 2.86 8.22 9.04
14:27 2 21.4 45 68,720 0 12.69 1.39 21.05 75.38 4.18 2 9.05 9.96
14:26 2 21.4 46 68,726 0 14.65 1.36 19.18 74 4.35 2.86 8.23 9.05
14:25 2 21.4 46 68,732 0 16.44 1.36 25.93 75.42 4.51 2 7.44 8.19
14:24 2 21.4 45 68,741 0 16.49 1.38 34.77 69.64 4.94 3.71 9.04 9.94
14:23 2 21.4 45 68,751 0 12.64 1.38 20.13 77.59 4.34 2 8.26 9.08
14:22 2 21.3 45 68,739 0 12.59 1.38 13.59 83.1 4.55 2.86 8.28 9.11
14:21 2 21.4 45 68,753 0 14.65 1.4 20.77 83.21 5.11 2.86 7.5 8.25
14:20 2 21.3 45 68,743 0 11.64 1.39 26.81 63.22 4.71 3.71 9.84 10.82
14:19 2 21.4 45 68,761 0 13.93 1.39 13.31 83.01 4.99 2.86 9.82 10.8
14:18 2 21.4 45 68,751 0 15.94 1.39 16.05 85.49 5.55 2.86 9.8 10.78
14:17 2 21.4 45 68,770 0 15.52 1.41 17.24 84.24 5.59 2.86 9.83 10.81
14:16 2 21.5 45 68,759 0 15.28 1.41 13.76 90.3 5.81 3.71 8.29 9.12
14:15 2 21.5 44 68,749 0 11.32 1.43 9.84 88.91 5.06 3.71 9.88 10.87
14:14 2 21.6 44 68,768 0 13.11 1.43 9.29 91.84 5.78 3.71 9.88 10.87
14:13 2 21.7 44 68,792 0 15.33 1.43 10.08 91.23 6.12 6.29 13.73 15.11
14:12 2 21.9 44 68,792 0 17.67 1.44 14.12 90.81 6.36 8 14.54 16